Time;durP1;ratioP1;P1;durP2;ratioP2;P2;SDS_P1;SDS_P2;PMS_P1;PMS_P2;Temp;Humidity;BMP_temperature;BMP_pressure;BME280_temperature;BME280_humidity;BME280_pressure;Samples;Min_cycle;Max_cycle;Signal;HPM_P1;HPM_P2
2023/01/31 00:01:13;;;;;;;0.80;0.80;;;5.50;99.90;;;;;;5047339;28;20196;-66
2023/01/31 00:03:41;;;;;;;0.90;0.90;;;5.50;99.90;;;;;;5049851;28;20216;-64
2023/01/31 00:06:18;;;;;;;0.80;0.80;;;5.50;99.90;;;;;;5050888;28;20192;-67
2023/01/31 00:08:45;;;;;;;0.87;0.87;;;5.50;99.90;;;;;;5056586;28;20195;-65
2023/01/31 00:11:15;;;;;;;0.90;0.90;;;5.50;99.90;;;;;;5049209;28;20196;-66
2023/01/31 00:13:43;;;;;;;0.77;0.77;;;5.40;99.90;;;;;;5049472;28;20218;-65
2023/01/31 00:16:11;;;;;;;0.80;0.80;;;5.40;99.90;;;;;;5048250;28;20224;-65
2023/01/31 00:18:39;;;;;;;0.90;0.90;;;5.40;99.90;;;;;;5048174;28;20210;-65
2023/01/31 00:21:08;;;;;;;0.87;0.87;;;5.40;99.90;;;;;;5049042;28;20207;-66
2023/01/31 00:23:35;;;;;;;0.90;0.90;;;5.40;99.90;;;;;;5045160;28;20227;-67
2023/01/31 00:26:14;;;;;;;0.80;0.80;;;5.40;99.90;;;;;;5049926;28;20200;-66
2023/01/31 00:28:42;;;;;;;0.97;0.97;;;5.40;99.90;;;;;;5051005;28;20210;-66
2023/01/31 00:31:10;;;;;;;0.67;0.67;;;5.40;99.90;;;;;;5050019;28;20210;-65
2023/01/31 00:33:38;;;;;;;0.90;0.90;;;5.50;99.90;;;;;;5050425;28;20825;-66
2023/01/31 00:36:07;;;;;;;0.90;0.90;;;5.50;99.90;;;;;;5048569;28;20230;-66
2023/01/31 00:38:35;;;;;;;0.70;0.70;;;5.50;99.90;;;;;;5046572;28;20200;-67
2023/01/31 00:41:02;;;;;;;0.80;0.80;;;5.60;99.90;;;;;;5049551;28;20200;-65
2023/01/31 00:43:31;;;;;;;0.93;0.90;;;5.50;99.90;;;;;;5049370;28;20231;-65
2023/01/31 00:45:58;;;;;;;0.70;0.70;;;5.50;99.90;;;;;;5048773;28;20681;-65
2023/01/31 00:48:26;;;;;;;0.83;0.83;;;5.60;99.90;;;;;;5048901;28;20206;-65
2023/01/31 00:50:53;;;;;;;0.90;0.90;;;5.60;99.90;;;;;;5048821;28;20211;-65
2023/01/31 00:53:22;;;;;;;0.80;0.80;;;5.50;99.90;;;;;;5048762;28;20223;-66
2023/01/31 00:55:49;;;;;;;0.70;0.70;;;5.50;99.90;;;;;;5048077;28;20215;-66
2023/01/31 00:58:16;;;;;;;0.90;0.90;;;5.50;99.90;;;;;;5046083;28;20679;-66
2023/01/31 01:00:44;;;;;;;0.80;0.80;;;5.50;99.90;;;;;;5048759;28;20192;-65
2023/01/31 01:03:11;;;;;;;0.90;0.90;;;5.40;99.90;;;;;;5047694;28;20594;-65
2023/01/31 01:05:38;;;;;;;0.70;0.70;;;5.50;99.90;;;;;;5049189;28;20192;-64
2023/01/31 01:08:05;;;;;;;0.80;0.80;;;5.50;99.90;;;;;;5049901;28;20198;-66
2023/01/31 01:10:32;;;;;;;0.80;0.80;;;5.50;99.90;;;;;;5049743;28;20200;-65
2023/01/31 01:12:59;;;;;;;0.90;0.90;;;5.50;99.90;;;;;;5050881;28;20265;-66
2023/01/31 01:15:26;;;;;;;0.90;0.90;;;5.50;99.90;;;;;;5050159;28;20233;-65
2023/01/31 01:17:55;;;;;;;0.80;0.80;;;5.40;99.90;;;;;;5050157;28;20218;-66
2023/01/31 01:20:21;;;;;;;1.17;0.90;;;5.40;99.90;;;;;;5049347;28;20207;-66
2023/01/31 01:22:48;;;;;;;0.60;0.60;;;5.40;99.90;;;;;;5049421;28;20592;-65
2023/01/31 01:25:15;;;;;;;1.23;1.00;;;5.40;99.90;;;;;;5046398;28;20192;-66
2023/01/31 01:27:42;;;;;;;0.83;0.83;;;5.40;99.90;;;;;;5049599;28;20203;-67
2023/01/31 01:30:10;;;;;;;0.70;0.70;;;5.30;99.90;;;;;;5053037;28;20204;-65
2023/01/31 01:32:38;;;;;;;0.77;0.77;;;5.20;99.90;;;;;;5051384;28;20258;-64
2023/01/31 01:35:08;;;;;;;0.70;0.70;;;5.30;99.90;;;;;;5052699;28;20230;-65
2023/01/31 01:37:35;;;;;;;0.90;0.90;;;5.30;99.90;;;;;;5050664;28;20191;-66
2023/01/31 01:40:02;;;;;;;0.80;0.80;;;5.30;99.90;;;;;;5054005;28;20303;-66
2023/01/31 01:42:34;;;;;;;0.80;0.80;;;5.30;99.90;;;;;;5054395;28;20227;-65
2023/01/31 01:45:03;;;;;;;1.23;0.80;;;5.30;99.90;;;;;;5053792;28;20200;-65
2023/01/31 01:47:37;;;;;;;0.80;0.80;;;5.30;99.90;;;;;;5054496;28;20300;-64
2023/01/31 01:50:11;;;;;;;0.67;0.67;;;5.30;99.90;;;;;;5054144;28;20670;-65
2023/01/31 01:52:41;;;;;;;0.83;0.83;;;5.30;99.90;;;;;;5054017;28;20220;-66
2023/01/31 01:55:17;;;;;;;1.00;1.00;;;5.40;99.90;;;;;;5053325;28;20247;-67
2023/01/31 01:57:46;;;;;;;0.73;0.73;;;5.40;99.90;;;;;;5054111;28;20218;-65
2023/01/31 02:00:19;;;;;;;0.80;0.80;;;5.40;99.90;;;;;;5059060;28;20210;-64
2023/01/31 02:02:50;;;;;;;0.77;0.77;;;5.40;99.90;;;;;;5059739;28;20228;-65
2023/01/31 02:05:24;;;;;;;0.80;0.80;;;5.40;99.90;;;;;;5067597;28;20207;-66
2023/01/31 02:07:51;;;;;;;0.70;0.70;;;5.40;99.90;;;;;;5057223;28;20208;-66
2023/01/31 02:10:23;;;;;;;0.80;0.80;;;5.30;99.90;;;;;;5060820;28;20210;-65
2023/01/31 02:12:50;;;;;;;0.80;0.80;;;5.20;99.90;;;;;;5061777;28;20227;-64
2023/01/31 02:15:16;;;;;;;0.80;0.80;;;5.20;99.90;;;;;;5060189;28;20231;-65
2023/01/31 02:17:44;;;;;;;0.83;0.83;;;5.30;99.90;;;;;;5059839;28;20702;-64
2023/01/31 02:20:35;;;;;;;0.80;0.80;;;5.30;99.90;;;;;;5055384;28;20222;-66
2023/01/31 02:23:31;;;;;;;0.80;0.80;;;5.30;99.90;;;;;;5055608;28;20236;-66
2023/01/31 02:26:23;;;;;;;0.90;0.90;;;5.40;99.90;;;;;;5053663;28;20701;-65
2023/01/31 02:29:18;;;;;;;0.80;0.80;;;5.30;99.90;;;;;;5055324;28;20587;-65
2023/01/31 02:35:27;;;;;;;1.03;1.03;;;5.30;99.90;;;;;;4956117;29;20806;-66
2023/01/31 02:38:05;;;;;;;1.00;1.00;;;5.20;99.90;;;;;;4958784;29;20195;-66
2023/01/31 02:40:46;;;;;;;0.90;0.90;;;5.30;99.90;;;;;;4953344;28;20215;-65
2023/01/31 02:43:22;;;;;;;1.00;1.00;;;5.20;99.90;;;;;;4952465;29;20254;-66
2023/01/31 02:45:58;;;;;;;0.90;0.90;;;5.20;99.90;;;;;;4951317;29;20207;-66
2023/01/31 02:48:34;;;;;;;0.80;0.80;;;5.20;99.90;;;;;;4951531;29;20229;-65
2023/01/31 02:51:07;;;;;;;0.90;0.90;;;5.20;99.90;;;;;;4951282;29;20218;-65
2023/01/31 02:53:36;;;;;;;0.70;0.70;;;5.30;99.90;;;;;;4951401;29;20231;-65
2023/01/31 02:56:16;;;;;;;0.87;0.87;;;5.30;99.90;;;;;;4950401;29;20657;-64
2023/01/31 02:58:49;;;;;;;0.80;0.80;;;5.20;99.90;;;;;;4954120;29;20206;-65
2023/01/31 03:01:21;;;;;;;0.77;0.77;;;5.20;99.90;;;;;;4961671;29;20225;-63
2023/01/31 03:03:49;;;;;;;0.93;0.93;;;5.20;99.90;;;;;;4966340;29;20231;-64
2023/01/31 03:06:58;;;;;;;0.90;0.90;;;5.30;99.90;;;;;;4961819;29;20221;-65
2023/01/31 03:09:36;;;;;;;1.03;1.03;;;5.30;99.90;;;;;;4958283;29;20207;-65
2023/01/31 03:12:42;;;;;;;0.70;0.70;;;5.30;99.90;;;;;;5023016;28;20319;-65
2023/01/31 03:18:22;;;;;;;1.00;1.00;;;5.30;99.90;;;;;;5051193;28;20215;-66
2023/01/31 03:20:56;;;;;;;1.10;0.90;;;5.30;99.90;;;;;;5051609;28;20204;-65
2023/01/31 03:23:28;;;;;;;0.93;0.93;;;5.30;99.90;;;;;;5051652;28;20228;-66
2023/01/31 03:25:57;;;;;;;1.00;1.00;;;5.20;99.90;;;;;;5051072;28;20196;-64
2023/01/31 03:28:28;;;;;;;1.00;1.00;;;5.20;99.90;;;;;;5051541;28;20210;-65
2023/01/31 04:01:18;;;;;;;1.10;1.10;;;4.90;99.90;;;;;;5047371;28;20250;-64
2023/01/31 04:03:49;;;;;;;1.10;1.10;;;4.90;99.90;;;;;;5050855;28;20729;-64
2023/01/31 04:06:16;;;;;;;1.30;1.30;;;4.90;99.90;;;;;;5051051;28;20584;-66
2023/01/31 04:08:43;;;;;;;1.00;1.00;;;4.90;99.90;;;;;;5049560;28;20887;-66
2023/01/31 04:11:14;;;;;;;1.00;1.00;;;4.80;99.90;;;;;;5050095;28;20231;-65
2023/01/31 04:13:41;;;;;;;1.10;1.10;;;4.80;99.90;;;;;;5050697;28;20207;-65
2023/01/31 04:16:08;;;;;;;1.00;1.00;;;4.80;99.90;;;;;;5050128;28;20239;-67
2023/01/31 04:18:36;;;;;;;0.93;0.93;;;4.70;99.90;;;;;;5050285;28;20208;-65
2023/01/31 04:21:04;;;;;;;1.00;1.00;;;4.70;99.90;;;;;;5051604;28;20206;-66
2023/01/31 04:23:30;;;;;;;1.00;1.00;;;4.70;99.90;;;;;;5051872;28;20542;-65
2023/01/31 04:25:57;;;;;;;1.10;1.10;;;4.70;99.90;;;;;;5051242;28;20200;-64
2023/01/31 04:28:24;;;;;;;0.93;0.93;;;4.70;99.90;;;;;;5055233;28;20752;-66
2023/01/31 04:30:53;;;;;;;0.90;0.90;;;4.60;99.90;;;;;;5058068;28;20226;-65
2023/01/31 04:33:20;;;;;;;1.03;1.03;;;4.60;99.90;;;;;;5055673;28;20235;-67
2023/01/31 04:35:50;;;;;;;1.00;1.00;;;4.60;99.90;;;;;;5051151;28;20223;-66
2023/01/31 04:38:17;;;;;;;1.20;1.20;;;4.60;99.90;;;;;;5051280;28;20200;-64
2023/01/31 04:40:44;;;;;;;0.97;0.97;;;4.60;99.90;;;;;;5051196;28;20303;-66
2023/01/31 04:43:11;;;;;;;1.00;1.00;;;4.60;99.90;;;;;;5051135;28;20242;-65
2023/01/31 04:45:37;;;;;;;1.20;1.20;;;4.50;99.90;;;;;;5051412;28;20212;-67
2023/01/31 04:48:05;;;;;;;0.90;0.90;;;4.40;99.90;;;;;;5051367;28;20211;-65
2023/01/31 04:50:32;;;;;;;1.00;1.00;;;4.40;99.90;;;;;;5048096;28;20811;-66
2023/01/31 04:53:00;;;;;;;1.20;1.20;;;4.40;99.90;;;;;;5051342;28;20219;-64
2023/01/31 04:55:27;;;;;;;1.13;1.13;;;4.40;99.90;;;;;;5051827;28;20276;-64
2023/01/31 04:57:54;;;;;;;1.37;1.27;;;4.30;99.90;;;;;;5052516;28;20203;-66
2023/01/31 05:00:21;;;;;;;1.20;1.20;;;4.20;99.90;;;;;;5054472;28;20216;-66
2023/01/31 05:02:48;;;;;;;1.10;1.10;;;4.10;99.90;;;;;;5056123;28;20822;-65
2023/01/31 05:05:15;;;;;;;1.30;1.20;;;4.10;99.90;;;;;;5051680;28;20208;-65
2023/01/31 05:07:44;;;;;;;1.40;1.40;;;4.10;99.90;;;;;;5051732;28;20419;-65
2023/01/31 05:10:12;;;;;;;1.40;1.40;;;4.10;99.90;;;;;;5049632;28;20306;-66
2023/01/31 05:12:40;;;;;;;1.50;1.40;;;4.10;99.90;;;;;;5051174;28;20307;-65
2023/01/31 05:15:07;;;;;;;1.20;1.20;;;4.20;99.90;;;;;;5050743;28;20211;-66
2023/01/31 05:17:34;;;;;;;1.50;1.40;;;4.20;99.90;;;;;;5051712;28;20226;-65
2023/01/31 05:20:01;;;;;;;1.30;1.30;;;4.10;99.90;;;;;;5051293;28;20239;-64
2023/01/31 05:22:28;;;;;;;1.50;1.40;;;3.90;99.90;;;;;;5052363;28;20246;-66
2023/01/31 05:24:55;;;;;;;1.40;1.40;;;3.80;99.90;;;;;;5053299;28;20298;-64
2023/01/31 05:27:23;;;;;;;1.37;1.37;;;3.80;99.90;;;;;;5051930;28;20211;-65
2023/01/31 05:29:50;;;;;;;1.53;1.43;;;3.60;99.90;;;;;;5050500;28;20710;-66
2023/01/31 05:32:18;;;;;;;1.50;1.40;;;3.50;99.90;;;;;;5049659;28;20238;-64
2023/01/31 05:34:45;;;;;;;1.27;1.23;;;3.40;99.90;;;;;;5049390;28;20239;-64
2023/01/31 05:37:11;;;;;;;1.60;1.50;;;3.30;99.90;;;;;;5050626;28;20985;-65
2023/01/31 05:39:38;;;;;;;1.30;1.30;;;3.30;99.90;;;;;;5049730;28;20207;-66
2023/01/31 05:42:05;;;;;;;1.30;1.20;;;3.30;99.90;;;;;;5049240;28;20723;-65
2023/01/31 05:44:33;;;;;;;1.73;1.63;;;3.20;99.90;;;;;;5049507;28;20954;-67
2023/01/31 05:47:00;;;;;;;1.33;1.33;;;3.20;99.90;;;;;;5049098;28;20208;-66
2023/01/31 05:49:30;;;;;;;1.40;1.30;;;3.20;99.90;;;;;;5049288;28;20627;-63
2023/01/31 05:51:57;;;;;;;1.60;1.50;;;3.10;99.90;;;;;;5048842;28;20238;-66
2023/01/31 05:54:24;;;;;;;1.77;1.67;;;3.10;99.90;;;;;;5049088;28;20709;-66
2023/01/31 05:56:51;;;;;;;1.50;1.40;;;3.10;99.90;;;;;;5049114;28;20220;-65
2023/01/31 05:59:18;;;;;;;1.10;1.10;;;3.10;99.90;;;;;;5049364;28;20236;-67
2023/01/31 06:01:46;;;;;;;1.60;1.50;;;3.10;99.90;;;;;;5047488;28;20234;-65
2023/01/31 06:04:13;;;;;;;1.57;1.47;;;3.10;99.90;;;;;;5049445;28;20208;-66
2023/01/31 06:06:40;;;;;;;1.60;1.50;;;3.00;99.90;;;;;;5049282;28;20250;-64
2023/01/31 06:09:06;;;;;;;1.60;1.50;;;3.00;99.90;;;;;;5054495;28;20297;-66
2023/01/31 06:11:33;;;;;;;1.63;1.53;;;3.00;99.90;;;;;;5069786;28;20217;-65
2023/01/31 06:14:00;;;;;;;1.70;1.60;;;3.00;99.90;;;;;;5070015;28;20233;-65
2023/01/31 06:16:27;;;;;;;1.73;1.47;;;3.00;99.90;;;;;;5071362;28;20325;-64
2023/01/31 06:18:55;;;;;;;1.50;1.40;;;3.00;99.90;;;;;;5062100;28;20216;-65
2023/01/31 06:21:22;;;;;;;1.60;1.50;;;3.00;99.90;;;;;;5052660;28;20212;-64
2023/01/31 06:23:49;;;;;;;1.50;1.50;;;2.90;99.90;;;;;;5053952;28;20266;-66
2023/01/31 06:26:16;;;;;;;1.87;1.77;;;2.90;99.90;;;;;;5054058;28;20670;-64
2023/01/31 06:28:43;;;;;;;1.70;1.60;;;2.80;99.90;;;;;;5054676;28;20235;-62
2023/01/31 06:31:11;;;;;;;1.70;1.60;;;2.80;99.90;;;;;;5054264;28;20199;-65
2023/01/31 06:33:38;;;;;;;1.53;1.43;;;2.70;99.90;;;;;;5053076;28;20683;-63
2023/01/31 06:36:08;;;;;;;1.63;1.53;;;2.70;99.90;;;;;;5053472;28;20200;-66
2023/01/31 06:38:34;;;;;;;1.40;1.40;;;2.70;99.90;;;;;;5053576;28;20223;-65
2023/01/31 06:41:01;;;;;;;1.70;1.60;;;2.60;99.90;;;;;;5054668;28;20587;-64
2023/01/31 06:43:28;;;;;;;1.63;1.53;;;2.60;99.90;;;;;;5054968;28;20591;-64
2023/01/31 06:45:55;;;;;;;1.60;1.50;;;2.50;99.90;;;;;;5053817;28;20710;-65
2023/01/31 06:48:22;;;;;;;1.40;1.40;;;2.50;99.90;;;;;;5056119;28;20215;-64
2023/01/31 06:50:49;;;;;;;1.60;1.50;;;2.50;99.90;;;;;;5055781;28;20208;-64
2023/01/31 06:53:17;;;;;;;1.70;1.60;;;2.60;99.90;;;;;;5055027;28;20242;-65
2023/01/31 06:55:44;;;;;;;1.63;1.53;;;2.60;99.90;;;;;;5053654;28;20290;-65
2023/01/31 06:58:10;;;;;;;1.57;1.47;;;2.60;99.90;;;;;;5053388;28;20232;-67
2023/01/31 07:00:37;;;;;;;1.40;1.40;;;2.60;99.90;;;;;;5052061;28;20199;-65
2023/01/31 07:03:04;;;;;;;1.17;1.17;;;2.60;99.90;;;;;;5052639;28;20315;-65
2023/01/31 07:05:31;;;;;;;1.90;1.80;;;2.60;99.90;;;;;;5054260;28;20208;-64
2023/01/31 07:07:58;;;;;;;1.77;1.67;;;2.60;99.90;;;;;;5052472;28;20552;-67
2023/01/31 07:10:26;;;;;;;1.80;1.70;;;2.60;99.90;;;;;;5051876;28;20200;-66
2023/01/31 07:12:53;;;;;;;2.20;2.10;;;2.50;99.90;;;;;;5051595;28;20231;-64
2023/01/31 07:15:20;;;;;;;1.60;1.50;;;2.50;99.90;;;;;;5051427;28;20231;-65
2023/01/31 07:17:46;;;;;;;1.93;1.83;;;2.50;99.90;;;;;;5051611;28;20228;-65
2023/01/31 07:20:14;;;;;;;1.90;1.80;;;2.50;99.90;;;;;;5051336;28;20214;-64
2023/01/31 07:22:41;;;;;;;1.70;1.60;;;2.50;99.90;;;;;;5050997;28;20224;-65
2023/01/31 07:25:08;;;;;;;2.07;1.97;;;2.50;99.90;;;;;;5051285;28;20212;-64
2023/01/31 07:27:36;;;;;;;1.80;1.70;;;2.50;99.90;;;;;;5052405;28;20200;-64
2023/01/31 07:30:04;;;;;;;2.50;2.30;;;2.40;99.90;;;;;;5057932;28;20212;-64
2023/01/31 07:32:31;;;;;;;1.90;1.80;;;2.40;99.90;;;;;;5054927;28;20594;-65
2023/01/31 07:34:57;;;;;;;2.40;2.20;;;2.40;99.90;;;;;;5052407;28;20206;-66
2023/01/31 07:37:24;;;;;;;2.20;2.10;;;2.40;99.90;;;;;;5052225;28;20939;-66
2023/01/31 07:39:51;;;;;;;2.83;2.03;;;2.40;99.90;;;;;;5052390;28;20234;-65
2023/01/31 07:42:18;;;;;;;1.70;1.60;;;2.40;99.90;;;;;;5051604;28;20281;-65
2023/01/31 07:44:46;;;;;;;1.60;1.50;;;2.50;99.90;;;;;;5052620;28;20574;-67
2023/01/31 07:47:13;;;;;;;2.23;2.13;;;2.50;99.90;;;;;;5051612;28;20204;-68
2023/01/31 07:49:40;;;;;;;1.70;1.60;;;2.50;99.90;;;;;;5053412;28;20199;-66
2023/01/31 07:52:07;;;;;;;1.77;1.67;;;2.60;99.90;;;;;;5053167;28;20228;-65
2023/01/31 07:54:34;;;;;;;1.93;1.83;;;2.60;99.90;;;;;;5054272;28;20204;-64
2023/01/31 07:57:01;;;;;;;1.97;1.87;;;2.70;99.90;;;;;;5054153;28;20230;-65
2023/01/31 07:59:28;;;;;;;1.93;1.83;;;2.70;99.90;;;;;;5054806;28;20208;-65
2023/01/31 08:04:49;;;;;;;1.80;1.70;;;2.70;99.90;;;;;;5016052;28;20267;-63
2023/01/31 08:07:16;;;;;;;1.90;1.80;;;2.90;99.90;;;;;;5052078;28;20232;-64
2023/01/31 08:09:45;;;;;;;2.30;2.20;;;2.90;99.90;;;;;;5052006;28;20218;-66
2023/01/31 08:12:12;;;;;;;2.33;2.23;;;2.90;99.90;;;;;;5051682;28;20776;-65
2023/01/31 08:14:39;;;;;;;2.43;2.30;;;3.00;99.90;;;;;;5051931;28;20666;-64
2023/01/31 08:17:07;;;;;;;2.40;2.20;;;3.00;99.90;;;;;;5051650;28;20224;-65
2023/01/31 08:19:34;;;;;;;1.90;1.80;;;3.10;99.90;;;;;;5051380;28;20747;-66
2023/01/31 08:22:01;;;;;;;1.80;1.70;;;3.20;99.90;;;;;;5050362;28;20250;-65
2023/01/31 08:24:29;;;;;;;1.87;1.77;;;3.20;99.90;;;;;;5051381;28;20641;-66
2023/01/31 08:26:56;;;;;;;2.10;2.00;;;3.30;99.90;;;;;;5050878;28;20861;-64
2023/01/31 08:29:23;;;;;;;1.70;1.60;;;3.40;99.90;;;;;;5050953;28;20290;-65
2023/01/31 08:31:50;;;;;;;1.93;1.83;;;3.50;99.90;;;;;;5050115;28;20255;-66
2023/01/31 08:34:19;;;;;;;1.80;1.70;;;3.60;99.90;;;;;;5050752;28;20204;-66
2023/01/31 08:36:46;;;;;;;1.70;1.60;;;3.60;99.90;;;;;;5050918;28;20207;-65
2023/01/31 08:39:13;;;;;;;1.80;1.70;;;3.80;99.90;;;;;;5050498;28;20204;-67
2023/01/31 08:41:39;;;;;;;2.10;1.90;;;3.90;99.90;;;;;;5053005;28;20240;-66
2023/01/31 08:44:06;;;;;;;1.70;1.60;;;4.10;99.90;;;;;;5055274;28;20203;-63
2023/01/31 08:46:35;;;;;;;1.63;1.53;;;4.30;99.90;;;;;;5054360;28;20222;-65
2023/01/31 08:49:04;;;;;;;1.90;1.80;;;4.40;99.90;;;;;;5055918;28;20267;-65
2023/01/31 08:51:33;;;;;;;1.80;1.70;;;4.60;99.90;;;;;;5055956;28;20667;-66
2023/01/31 08:54:00;;;;;;;1.80;1.70;;;4.70;99.90;;;;;;5056063;28;20204;-66
2023/01/31 08:56:27;;;;;;;1.70;1.60;;;4.70;99.90;;;;;;5055694;28;20307;-64
2023/01/31 08:58:54;;;;;;;1.50;1.40;;;4.90;99.90;;;;;;5052074;28;20236;-66
2023/01/31 09:01:22;;;;;;;1.47;1.40;;;5.20;99.90;;;;;;5050826;28;20218;-66
2023/01/31 09:03:55;;;;;;;1.60;1.50;;;5.70;99.90;;;;;;5050706;28;20210;-65
2023/01/31 09:06:23;;;;;;;1.30;1.20;;;5.90;99.90;;;;;;5050278;28;20281;-66
2023/01/31 09:08:51;;;;;;;1.47;1.40;;;6.20;99.90;;;;;;5050624;28;20693;-67
2023/01/31 09:11:18;;;;;;;1.73;1.63;;;6.30;99.90;;;;;;5050045;28;20212;-66
2023/01/31 09:13:45;;;;;;;1.87;1.73;;;6.30;99.90;;;;;;5052672;28;20211;-65
2023/01/31 09:16:13;;;;;;;1.80;1.70;;;6.30;99.90;;;;;;5052328;28;20204;-65
2023/01/31 09:18:41;;;;;;;1.60;1.50;;;6.40;99.90;;;;;;5050530;28;20777;-65
2023/01/31 09:21:09;;;;;;;1.70;1.60;;;6.40;99.90;;;;;;5050718;28;20230;-68
2023/01/31 09:23:36;;;;;;;1.67;1.57;;;6.10;99.90;;;;;;5050884;28;20227;-69
2023/01/31 09:26:05;;;;;;;1.60;1.50;;;6.10;99.90;;;;;;5051125;28;20216;-65
2023/01/31 09:28:33;;;;;;;1.80;1.70;;;5.90;99.90;;;;;;5050181;28;20196;-65
2023/01/31 09:31:03;;;;;;;1.53;1.47;;;5.80;99.90;;;;;;5049794;28;20990;-65
2023/01/31 09:33:31;;;;;;;2.23;2.13;;;5.70;99.90;;;;;;5050798;28;20775;-65
2023/01/31 09:35:59;;;;;;;1.70;1.60;;;5.70;99.90;;;;;;5050570;28;20230;-68
2023/01/31 09:38:26;;;;;;;1.80;1.70;;;5.80;99.90;;;;;;5050133;28;20224;-66
2023/01/31 09:40:54;;;;;;;1.70;1.60;;;5.80;99.90;;;;;;5049613;28;20207;-65
2023/01/31 09:43:28;;;;;;;1.25;1.25;;;5.80;99.90;;;;;;5050019;28;20228;-66
2023/01/31 09:45:58;;;;;;;1.80;1.70;;;5.80;99.90;;;;;;5050114;28;20235;-65
2023/01/31 09:48:30;;;;;;;1.63;1.53;;;5.80;99.90;;;;;;5050298;28;20295;-66
2023/01/31 09:50:59;;;;;;;1.90;1.80;;;6.00;99.90;;;;;;5050992;28;20203;-66
2023/01/31 09:53:33;;;;;;;1.70;1.60;;;5.90;99.90;;;;;;5053475;28;20262;-65
2023/01/31 09:56:14;;;;;;;1.87;1.77;;;5.90;99.90;;;;;;5053490;28;20208;-66
2023/01/31 09:58:52;;;;;;;1.70;1.60;;;5.80;99.90;;;;;;5053922;28;20312;-65
2023/01/31 10:01:25;;;;;;;2.03;1.93;;;5.80;99.90;;;;;;5054320;28;20199;-65
2023/01/31 10:04:06;;;;;;;1.90;1.80;;;5.50;99.90;;;;;;5059642;28;20204;-64
2023/01/31 10:06:40;;;;;;;1.90;1.80;;;5.40;99.90;;;;;;5056938;28;20306;-66
2023/01/31 10:09:12;;;;;;;2.00;1.90;;;5.50;99.90;;;;;;5055750;28;20659;-66
2023/01/31 10:11:41;;;;;;;2.10;2.00;;;5.50;99.90;;;;;;5054017;28;20228;-66
2023/01/31 10:14:21;;;;;;;1.80;1.70;;;5.70;99.90;;;;;;5053197;28;20314;-66
2023/01/31 10:16:58;;;;;;;2.10;2.00;;;5.90;99.90;;;;;;5052542;28;20210;-67
2023/01/31 10:19:28;;;;;;;2.30;2.20;;;5.80;99.90;;;;;;5050298;28;20208;-65
2023/01/31 10:22:03;;;;;;;2.30;2.10;;;5.90;99.90;;;;;;5057543;28;20744;-64
2023/01/31 10:24:34;;;;;;;2.13;2.00;;;6.00;99.90;;;;;;5059459;28;20430;-67
2023/01/31 10:27:05;;;;;;;2.30;2.20;;;6.10;99.90;;;;;;5061557;28;20220;-67
2023/01/31 10:29:39;;;;;;;2.20;2.10;;;5.90;99.90;;;;;;5062028;28;20302;-64
2023/01/31 10:32:12;;;;;;;2.47;2.37;;;6.00;99.90;;;;;;5058863;28;20224;-66
2023/01/31 10:34:43;;;;;;;2.60;2.50;;;6.10;99.90;;;;;;5058538;28;20206;-64
2023/01/31 10:37:18;;;;;;;2.20;2.10;;;6.10;99.90;;;;;;5058816;28;20215;-65
2023/01/31 10:39:49;;;;;;;2.30;2.20;;;6.00;99.90;;;;;;5058587;28;20218;-66
2023/01/31 10:42:24;;;;;;;2.77;2.57;;;5.90;99.90;;;;;;5055360;28;20231;-65
2023/01/31 10:44:56;;;;;;;2.60;2.40;;;5.80;99.90;;;;;;5054513;28;20204;-64
2023/01/31 10:47:28;;;;;;;2.30;2.20;;;5.80;99.90;;;;;;5056548;28;20204;-66
2023/01/31 10:49:55;;;;;;;2.33;2.23;;;5.80;99.90;;;;;;5055974;28;20208;-65
2023/01/31 10:52:36;;;;;;;2.60;2.40;;;6.00;99.90;;;;;;5056902;28;20254;-63
2023/01/31 10:55:25;;;;;;;2.30;2.20;;;6.30;99.90;;;;;;5058536;28;20242;-65
2023/01/31 10:57:52;;;;;;;2.50;2.40;;;6.30;99.90;;;;;;5059588;28;20227;-65
2023/01/31 11:00:26;;;;;;;2.40;2.30;;;6.40;99.90;;;;;;5055902;28;20211;-65
2023/01/31 11:02:53;;;;;;;2.10;2.00;;;6.30;99.90;;;;;;5050160;28;20232;-67
2023/01/31 11:05:23;;;;;;;2.20;2.10;;;6.20;99.90;;;;;;5048723;28;20204;-65
2023/01/31 11:07:50;;;;;;;2.20;2.10;;;6.10;99.90;;;;;;5052785;28;20208;-65
2023/01/31 11:10:26;;;;;;;2.20;2.10;;;6.00;99.90;;;;;;5053057;28;20675;-67
2023/01/31 11:12:54;;;;;;;2.10;2.00;;;6.00;99.90;;;;;;5052790;28;20728;-67
2023/01/31 11:15:27;;;;;;;2.40;2.30;;;6.10;99.90;;;;;;5054583;28;20210;-64
2023/01/31 11:17:57;;;;;;;2.47;2.33;;;6.10;99.90;;;;;;5054968;28;20220;-65
2023/01/31 11:20:27;;;;;;;2.00;1.90;;;6.10;99.90;;;;;;5056859;28;20310;-65
2023/01/31 11:22:55;;;;;;;1.93;1.83;;;6.10;99.90;;;;;;5056853;28;20592;-67
2023/01/31 11:25:24;;;;;;;1.90;1.80;;;6.10;99.90;;;;;;5054147;28;20234;-66
2023/01/31 11:27:54;;;;;;;2.10;2.00;;;6.20;99.90;;;;;;5053654;28;20223;-67
2023/01/31 11:30:27;;;;;;;1.90;1.80;;;6.40;99.90;;;;;;5062833;28;20208;-67
2023/01/31 11:32:57;;;;;;;1.80;1.70;;;6.60;99.90;;;;;;5062894;28;20228;-66
2023/01/31 11:35:27;;;;;;;1.90;1.80;;;6.60;99.90;;;;;;5062098;28;20267;-69
2023/01/31 11:37:56;;;;;;;1.97;1.57;;;6.80;99.90;;;;;;5066913;28;20246;-66
2023/01/31 11:40:29;;;;;;;1.73;1.63;;;6.80;99.90;;;;;;5053829;28;20579;-66
2023/01/31 11:42:58;;;;;;;1.60;1.50;;;6.90;99.90;;;;;;5052209;28;20235;-64
2023/01/31 11:45:27;;;;;;;1.80;1.70;;;6.80;99.90;;;;;;5051463;28;20208;-65
2023/01/31 11:47:57;;;;;;;1.60;1.50;;;6.90;99.90;;;;;;5051555;28;20773;-65
2023/01/31 11:50:31;;;;;;;1.80;1.70;;;6.90;99.90;;;;;;5051919;28;20565;-66
2023/01/31 11:53:00;;;;;;;1.67;1.57;;;7.00;99.90;;;;;;5052247;28;20232;-65
2023/01/31 11:55:29;;;;;;;1.80;1.50;;;7.10;99.90;;;;;;5052603;28;20298;-67
2023/01/31 11:57:59;;;;;;;1.43;1.40;;;7.10;99.90;;;;;;5043685;28;20359;-70
2023/01/31 12:00:30;;;;;;;1.80;1.70;;;7.10;99.90;;;;;;5041938;28;20207;-64
2023/01/31 12:03:03;;;;;;;1.57;1.47;;;7.20;99.90;;;;;;5047306;28;20230;-66
2023/01/31 12:05:36;;;;;;;1.40;1.30;;;7.20;99.90;;;;;;5045740;28;20203;-64
2023/01/31 12:08:03;;;;;;;1.90;1.80;;;7.20;99.90;;;;;;5050864;28;20203;-65
2023/01/31 12:10:41;;;;;;;1.50;1.40;;;7.20;99.90;;;;;;5051859;28;20321;-68
2023/01/31 12:13:16;;;;;;;1.93;1.83;;;7.20;99.90;;;;;;5044743;28;20251;-63
2023/01/31 12:15:54;;;;;;;1.63;1.53;;;7.30;99.90;;;;;;5045522;28;20239;-65
2023/01/31 12:18:39;;;;;;;1.30;1.30;;;7.30;99.90;;;;;;5051751;28;20224;-66
2023/01/31 12:21:11;;;;;;;1.20;1.20;;;7.30;99.90;;;;;;5046534;28;20665;-65
2023/01/31 12:23:49;;;;;;;1.33;1.33;;;7.50;99.90;;;;;;5055603;28;20228;-66
2023/01/31 12:26:24;;;;;;;1.73;1.63;;;7.40;99.90;;;;;;5049319;28;20212;-66
2023/01/31 12:29:08;;;;;;;1.30;1.30;;;7.40;99.90;;;;;;5057102;28;20202;-65
2023/01/31 12:32:03;;;;;;;1.47;1.40;;;7.50;99.90;;;;;;5055605;28;20218;-66
2023/01/31 12:34:48;;;;;;;1.63;1.33;;;7.40;99.90;;;;;;5055573;28;20199;-66
2023/01/31 12:37:28;;;;;;;1.57;1.47;;;7.40;99.90;;;;;;5052273;28;20379;-66
2023/01/31 12:40:31;;;;;;;1.40;1.30;;;7.40;99.90;;;;;;5052223;28;20345;-65
2023/01/31 12:43:00;;;;;;;2.13;1.20;;;7.40;99.90;;;;;;5051471;28;20238;-68
2023/01/31 12:45:47;;;;;;;1.40;1.30;;;7.40;99.90;;;;;;5051226;28;20211;-65
2023/01/31 12:48:40;;;;;;;1.40;1.40;;;7.30;99.90;;;;;;5051363;28;20588;-66
2023/01/31 12:51:20;;;;;;;1.40;1.30;;;7.30;99.90;;;;;;5051168;28;20203;-66
2023/01/31 12:53:55;;;;;;;1.50;1.40;;;7.30;99.90;;;;;;5050494;28;20203;-66
2023/01/31 12:56:38;;;;;;;1.23;1.13;;;7.20;99.90;;;;;;5049916;28;20253;-67
2023/01/31 12:59:15;;;;;;;1.40;1.30;;;7.20;99.90;;;;;;5050216;28;20252;-67
2023/01/31 13:01:48;;;;;;;1.43;1.37;;;7.30;99.90;;;;;;5049996;28;20231;-67
2023/01/31 13:04:31;;;;;;;1.80;1.70;;;7.30;99.90;;;;;;5047531;28;20204;-67
2023/01/31 13:06:59;;;;;;;1.70;1.60;;;7.20;99.90;;;;;;5050142;28;20560;-65
2023/01/31 13:09:28;;;;;;;1.20;1.20;;;7.30;99.90;;;;;;5050410;28;20207;-65
2023/01/31 13:11:59;;;;;;;1.53;1.43;;;7.30;99.90;;;;;;5045842;28;20354;-66
2023/01/31 13:14:30;;;;;;;1.07;1.07;;;7.30;99.90;;;;;;5042926;28;20207;-66
2023/01/31 13:17:01;;;;;;;2.73;1.70;;;7.30;99.90;;;;;;5043767;28;20235;-65
2023/01/31 13:19:34;;;;;;;1.27;1.27;;;7.20;99.90;;;;;;5041482;28;20314;-65
2023/01/31 13:22:08;;;;;;;1.07;1.07;;;7.20;99.90;;;;;;5042965;28;20219;-67
2023/01/31 13:24:39;;;;;;;1.10;1.10;;;7.20;99.90;;;;;;5050576;28;20712;-67
2023/01/31 13:27:15;;;;;;;1.30;1.27;;;7.30;99.90;;;;;;5054398;28;20207;-66
2023/01/31 13:29:46;;;;;;;1.30;1.30;;;7.30;99.90;;;;;;5048334;28;20299;-67
2023/01/31 13:32:18;;;;;;;1.50;1.40;;;7.40;99.90;;;;;;5057220;28;20295;-67
2023/01/31 13:34:52;;;;;;;1.20;1.20;;;7.40;99.90;;;;;;5056289;28;20654;-66
2023/01/31 13:37:20;;;;;;;1.60;1.50;;;7.40;99.90;;;;;;5053981;28;20227;-66
2023/01/31 13:39:50;;;;;;;1.10;1.00;;;7.40;99.90;;;;;;5053654;28;21023;-64
2023/01/31 13:42:17;;;;;;;1.30;1.20;;;7.40;99.90;;;;;;5050492;28;20253;-65
2023/01/31 13:44:45;;;;;;;1.30;1.20;;;7.50;99.90;;;;;;5051664;28;20690;-67
2023/01/31 13:47:17;;;;;;;1.30;1.30;;;7.50;99.90;;;;;;5050615;28;20200;-66
2023/01/31 13:49:51;;;;;;;1.73;1.50;;;7.40;99.90;;;;;;5053008;28;20271;-67
2023/01/31 13:52:23;;;;;;;1.73;1.20;;;7.30;99.90;;;;;;5051083;28;20278;-67
2023/01/31 13:54:54;;;;;;;1.73;1.40;;;7.30;99.90;;;;;;5051488;28;20199;-66